sensor_id;sensor_type;location;lat;lon;timestamp;pressure;altitude;pressure_sealevel;temperature;humidity
7760;BME280;3924;48.830;9.262;2022-07-23T00:01:20;98520.44;;;26.72;51.00
7760;BME280;3924;48.830;9.262;2022-07-23T00:03:52;98511.69;;;26.70;50.95
7760;BME280;3924;48.830;9.262;2022-07-23T00:06:21;98496.63;;;26.64;50.97
7760;BME280;3924;48.830;9.262;2022-07-23T00:08:47;98491.44;;;26.59;50.65
7760;BME280;3924;48.830;9.262;2022-07-23T00:11:14;98485.09;;;26.55;50.31
7760;BME280;3924;48.830;9.262;2022-07-23T00:13:41;98487.91;;;26.51;51.20
7760;BME280;3924;48.830;9.262;2022-07-23T00:16:07;98484.72;;;26.45;50.48
7760;BME280;3924;48.830;9.262;2022-07-23T00:18:34;98476.00;;;26.43;50.51
7760;BME280;3924;48.830;9.262;2022-07-23T00:21:00;98481.56;;;26.43;50.42
7760;BME280;3924;48.830;9.262;2022-07-23T00:23:27;98481.94;;;26.38;50.64
7760;BME280;3924;48.830;9.262;2022-07-23T00:25:55;98474.78;;;26.37;50.75
7760;BME280;3924;48.830;9.262;2022-07-23T00:28:21;98485.91;;;26.37;50.42
7760;BME280;3924;48.830;9.262;2022-07-23T00:30:48;98475.19;;;26.36;50.08
7760;BME280;3924;48.830;9.262;2022-07-23T00:33:15;98483.91;;;26.38;50.17
7760;BME280;3924;48.830;9.262;2022-07-23T00:35:41;98476.78;;;26.30;50.40
7760;BME280;3924;48.830;9.262;2022-07-23T00:38:08;98466.84;;;26.25;50.05
7760;BME280;3924;48.830;9.262;2022-07-23T00:40:38;98457.72;;;26.21;50.78
7760;BME280;3924;48.830;9.262;2022-07-23T00:43:05;98477.19;;;26.17;50.14
7760;BME280;3924;48.830;9.262;2022-07-23T00:45:32;98468.06;;;26.10;50.17
7760;BME280;3924;48.830;9.262;2022-07-23T00:47:59;98471.25;;;26.05;50.41
7760;BME280;3924;48.830;9.262;2022-07-23T00:50:26;98466.50;;;26.02;50.21
7760;BME280;3924;48.830;9.262;2022-07-23T00:52:53;98454.56;;;25.87;50.87
7760;BME280;3924;48.830;9.262;2022-07-23T00:55:20;98445.47;;;25.76;51.14
7760;BME280;3924;48.830;9.262;2022-07-23T00:57:46;98426.38;;;25.63;51.51
7760;BME280;3924;48.830;9.262;2022-07-23T01:00:13;98447.41;;;25.54;51.80
7760;BME280;3924;48.830;9.262;2022-07-23T01:02:41;98440.25;;;25.49;50.96
7760;BME280;3924;48.830;9.262;2022-07-23T01:05:08;98439.06;;;25.40;51.79
7760;BME280;3924;48.830;9.262;2022-07-23T01:07:35;98457.28;;;25.37;52.36
7760;BME280;3924;48.830;9.262;2022-07-23T01:10:02;98462.84;;;25.33;51.48
7760;BME280;3924;48.830;9.262;2022-07-23T01:12:30;98464.81;;;25.36;51.81
7760;BME280;3924;48.830;9.262;2022-07-23T01:14:58;98460.06;;;25.33;51.65
7760;BME280;3924;48.830;9.262;2022-07-23T01:17:25;98451.72;;;25.26;51.98
7760;BME280;3924;48.830;9.262;2022-07-23T01:19:51;98441.38;;;25.23;51.76
7760;BME280;3924;48.830;9.262;2022-07-23T01:22:19;98458.03;;;25.23;51.80
7760;BME280;3924;48.830;9.262;2022-07-23T01:24:46;98445.34;;;25.22;51.80
7760;BME280;3924;48.830;9.262;2022-07-23T01:27:13;98408.88;;;25.20;51.88
7760;BME280;3924;48.830;9.262;2022-07-23T01:29:40;98408.88;;;25.24;51.64
7760;BME280;3924;48.830;9.262;2022-07-23T01:32:06;98435.06;;;25.26;52.28
7760;BME280;3924;48.830;9.262;2022-07-23T01:34:33;98434.66;;;25.24;52.27
7760;BME280;3924;48.830;9.262;2022-07-23T01:36:59;98428.31;;;25.27;52.19
7760;BME280;3924;48.830;9.262;2022-07-23T01:39:25;98426.75;;;25.26;52.26
7760;BME280;3924;48.830;9.262;2022-07-23T01:41:53;98414.84;;;25.26;52.29
7760;BME280;3924;48.830;9.262;2022-07-23T01:44:19;98414.44;;;25.27;52.29
7760;BME280;3924;48.830;9.262;2022-07-23T01:46:46;98404.53;;;25.26;51.78
7760;BME280;3924;48.830;9.262;2022-07-23T01:49:12;98403.72;;;25.22;52.17
7760;BME280;3924;48.830;9.262;2022-07-23T01:51:39;98415.22;;;25.17;51.94
7760;BME280;3924;48.830;9.262;2022-07-23T01:54:30;98433.06;;;25.16;51.97
7760;BME280;3924;48.830;9.262;2022-07-23T01:56:57;98437.00;;;25.15;51.86
7760;BME280;3924;48.830;9.262;2022-07-23T01:59:24;98430.25;;;25.09;52.10
7760;BME280;3924;48.830;9.262;2022-07-23T02:01:51;98440.19;;;25.06;52.70
7760;BME280;3924;48.830;9.262;2022-07-23T02:04:19;98426.69;;;25.05;52.20
7760;BME280;3924;48.830;9.262;2022-07-23T02:06:46;98434.56;;;25.03;52.64
7760;BME280;3924;48.830;9.262;2022-07-23T02:09:13;98454.44;;;25.05;52.76
7760;BME280;3924;48.830;9.262;2022-07-23T02:11:39;98465.06;;;24.96;52.65
7760;BME280;3924;48.830;9.262;2022-07-23T02:14:06;98473.75;;;24.91;53.08
7760;BME280;3924;48.830;9.262;2022-07-23T02:16:33;98461.47;;;24.85;53.15
7760;BME280;3924;48.830;9.262;2022-07-23T02:18:59;98462.63;;;24.83;53.18
7760;BME280;3924;48.830;9.262;2022-07-23T02:21:27;98459.84;;;24.83;52.47
7760;BME280;3924;48.830;9.262;2022-07-23T02:23:53;98465.78;;;24.82;52.52
7760;BME280;3924;48.830;9.262;2022-07-23T02:26:20;98468.97;;;24.80;53.18
7760;BME280;3924;48.830;9.262;2022-07-23T02:28:46;98468.56;;;24.78;52.67
7760;BME280;3924;48.830;9.262;2022-07-23T02:31:12;98472.53;;;24.81;53.34
7760;BME280;3924;48.830;9.262;2022-07-23T02:33:39;98486.81;;;24.83;53.26
7760;BME280;3924;48.830;9.262;2022-07-23T02:36:06;98494.31;;;24.79;53.13
7760;BME280;3924;48.830;9.262;2022-07-23T02:38:32;98497.09;;;24.79;53.13
7760;BME280;3924;48.830;9.262;2022-07-23T02:40:59;98505.78;;;24.74;53.68
7760;BME280;3924;48.830;9.262;2022-07-23T02:43:25;98509.31;;;24.67;53.25
7760;BME280;3924;48.830;9.262;2022-07-23T02:45:52;98515.25;;;24.66;53.63
7760;BME280;3924;48.830;9.262;2022-07-23T02:48:18;98518.03;;;24.66;53.36
7760;BME280;3924;48.830;9.262;2022-07-23T02:50:45;98524.34;;;24.66;53.39
7760;BME280;3924;48.830;9.262;2022-07-23T02:53:11;98528.69;;;24.64;53.29
7760;BME280;3924;48.830;9.262;2022-07-23T02:55:38;98535.38;;;24.52;54.01
7760;BME280;3924;48.830;9.262;2022-07-23T02:58:04;98541.63;;;24.42;53.54
7760;BME280;3924;48.830;9.262;2022-07-23T03:00:31;98538.75;;;24.31;54.56
7760;BME280;3924;48.830;9.262;2022-07-23T03:02:57;98545.84;;;24.28;54.05
7760;BME280;3924;48.830;9.262;2022-07-23T03:05:24;98540.28;;;24.28;54.16
7760;BME280;3924;48.830;9.262;2022-07-23T03:07:50;98547.00;;;24.24;54.99
7760;BME280;3924;48.830;9.262;2022-07-23T03:10:16;98546.16;;;24.20;53.93
7760;BME280;3924;48.830;9.262;2022-07-23T03:12:43;98552.91;;;24.22;54.74
7760;BME280;3924;48.830;9.262;2022-07-23T03:15:09;98548.19;;;24.26;54.27
7760;BME280;3924;48.830;9.262;2022-07-23T03:17:36;98560.13;;;24.31;54.43
7760;BME280;3924;48.830;9.262;2022-07-23T03:20:03;98557.81;;;24.36;54.84
7760;BME280;3924;48.830;9.262;2022-07-23T03:22:29;98562.91;;;24.31;54.68
7760;BME280;3924;48.830;9.262;2022-07-23T03:24:56;98553.75;;;24.26;54.60
7760;BME280;3924;48.830;9.262;2022-07-23T03:27:24;98555.31;;;24.24;54.84
7760;BME280;3924;48.830;9.262;2022-07-23T03:29:52;98549.75;;;24.20;54.56
7760;BME280;3924;48.830;9.262;2022-07-23T03:32:19;98551.38;;;24.25;54.80
7760;BME280;3924;48.830;9.262;2022-07-23T03:34:46;98553.78;;;24.30;54.64
7760;BME280;3924;48.830;9.262;2022-07-23T03:37:12;98541.16;;;24.36;54.46
7760;BME280;3924;48.830;9.262;2022-07-23T03:39:39;98538.44;;;24.40;54.18
7760;BME280;3924;48.830;9.262;2022-07-23T03:42:06;98526.56;;;24.43;54.37
7760;BME280;3924;48.830;9.262;2022-07-23T03:44:33;98535.63;;;24.36;54.74
7760;BME280;3924;48.830;9.262;2022-07-23T03:47:00;98533.59;;;24.29;55.21
7760;BME280;3924;48.830;9.262;2022-07-23T03:49:26;98539.50;;;24.24;54.81
7760;BME280;3924;48.830;9.262;2022-07-23T03:51:53;98542.25;;;24.24;54.88
7760;BME280;3924;48.830;9.262;2022-07-23T03:54:19;98537.91;;;24.27;54.37
7760;BME280;3924;48.830;9.262;2022-07-23T03:56:45;98528.84;;;24.30;55.20
7760;BME280;3924;48.830;9.262;2022-07-23T03:59:12;98532.44;;;24.34;54.68
7760;BME280;3924;48.830;9.262;2022-07-23T04:01:39;98529.34;;;24.39;54.26
7760;BME280;3924;48.830;9.262;2022-07-23T04:04:05;98536.47;;;24.40;55.26
7760;BME280;3924;48.830;9.262;2022-07-23T04:06:35;98533.28;;;24.38;55.14
7760;BME280;3924;48.830;9.262;2022-07-23T04:09:02;98534.09;;;24.39;54.21
7760;BME280;3924;48.830;9.262;2022-07-23T04:11:30;98540.44;;;24.43;55.14
7760;BME280;3924;48.830;9.262;2022-07-23T04:13:57;98549.53;;;24.40;54.97
7760;BME280;3924;48.830;9.262;2022-07-23T04:16:23;98548.28;;;24.34;54.48
7760;BME280;3924;48.830;9.262;2022-07-23T04:18:50;98547.81;;;24.28;55.35
7760;BME280;3924;48.830;9.262;2022-07-23T04:21:17;98545.78;;;24.21;55.12
7760;BME280;3924;48.830;9.262;2022-07-23T04:23:43;98544.19;;;24.17;54.97
7760;BME280;3924;48.830;9.262;2022-07-23T04:26:10;98554.53;;;24.23;55.42
7760;BME280;3924;48.830;9.262;2022-07-23T04:28:42;98552.59;;;24.31;55.10
7760;BME280;3924;48.830;9.262;2022-07-23T04:31:09;98556.13;;;24.28;54.94
7760;BME280;3924;48.830;9.262;2022-07-23T04:33:35;98554.88;;;24.22;55.56
7760;BME280;3924;48.830;9.262;2022-07-23T04:36:02;98569.13;;;24.20;55.67
7760;BME280;3924;48.830;9.262;2022-07-23T04:38:29;98567.94;;;24.21;55.13
7760;BME280;3924;48.830;9.262;2022-07-23T04:40:55;98555.34;;;24.27;55.11
7760;BME280;3924;48.830;9.262;2022-07-23T04:43:22;98555.03;;;24.36;55.12
7760;BME280;3924;48.830;9.262;2022-07-23T04:45:48;98560.56;;;24.36;55.15
7760;BME280;3924;48.830;9.262;2022-07-23T04:48:16;98552.28;;;24.40;55.20
7760;BME280;3924;48.830;9.262;2022-07-23T04:50:42;98555.50;;;24.45;55.03
7760;BME280;3924;48.830;9.262;2022-07-23T04:53:09;98549.94;;;24.42;55.31
7760;BME280;3924;48.830;9.262;2022-07-23T04:55:35;98547.94;;;24.39;55.47
7760;BME280;3924;48.830;9.262;2022-07-23T04:58:02;98555.81;;;24.33;55.63
7760;BME280;3924;48.830;9.262;2022-07-23T05:00:28;98553.78;;;24.30;55.17
7760;BME280;3924;48.830;9.262;2022-07-23T05:02:55;98557.00;;;24.36;55.68
7760;BME280;3924;48.830;9.262;2022-07-23T05:05:21;98562.56;;;24.36;55.00
7760;BME280;3924;48.830;9.262;2022-07-23T05:07:48;98562.97;;;24.38;55.27
7760;BME280;3924;48.830;9.262;2022-07-23T05:10:14;98568.19;;;24.50;54.76
7760;BME280;3924;48.830;9.262;2022-07-23T05:12:40;98569.03;;;24.54;55.07
7760;BME280;3924;48.830;9.262;2022-07-23T05:15:07;98570.22;;;24.53;55.21
7760;BME280;3924;48.830;9.262;2022-07-23T05:17:34;98569.81;;;24.54;55.33
7760;BME280;3924;48.830;9.262;2022-07-23T05:20:00;98566.66;;;24.52;55.15
7760;BME280;3924;48.830;9.262;2022-07-23T05:22:27;98573.78;;;24.53;55.36
7760;BME280;3924;48.830;9.262;2022-07-23T05:24:53;98563.53;;;24.58;55.24
7760;BME280;3924;48.830;9.262;2022-07-23T05:27:20;98558.44;;;24.70;54.93
7760;BME280;3924;48.830;9.262;2022-07-23T05:29:46;98558.94;;;24.87;54.53
7760;BME280;3924;48.830;9.262;2022-07-23T05:32:13;98559.38;;;24.96;54.08
7760;BME280;3924;48.830;9.262;2022-07-23T05:34:39;98573.28;;;25.03;54.27
7760;BME280;3924;48.830;9.262;2022-07-23T05:37:06;98580.09;;;25.09;54.05
7760;BME280;3924;48.830;9.262;2022-07-23T05:39:32;98592.00;;;25.13;53.66
7760;BME280;3924;48.830;9.262;2022-07-23T05:41:59;98590.81;;;25.14;53.79
7760;BME280;3924;48.830;9.262;2022-07-23T05:44:25;98593.03;;;24.91;54.42
7760;BME280;3924;48.830;9.262;2022-07-23T05:47:00;98593.03;;;24.87;54.53
7760;BME280;3924;48.830;9.262;2022-07-23T05:49:26;98600.16;;;24.88;54.90
7760;BME280;3924;48.830;9.262;2022-07-23T05:51:52;98599.75;;;24.90;54.54
7760;BME280;3924;48.830;9.262;2022-07-23T05:54:19;98612.84;;;24.89;54.32
7760;BME280;3924;48.830;9.262;2022-07-23T05:56:45;98612.88;;;24.93;54.93
7760;BME280;3924;48.830;9.262;2022-07-23T05:59:12;98610.53;;;24.98;54.56
7760;BME280;3924;48.830;9.262;2022-07-23T06:01:39;98610.53;;;25.02;54.18
7760;BME280;3924;48.830;9.262;2022-07-23T06:04:06;98619.66;;;24.99;54.04
7760;BME280;3924;48.830;9.262;2022-07-23T06:06:33;98624.81;;;25.00;54.59
7760;BME280;3924;48.830;9.262;2022-07-23T06:08:59;98631.13;;;24.97;54.72
7760;BME280;3924;48.830;9.262;2022-07-23T06:11:26;98627.94;;;24.92;54.49
7760;BME280;3924;48.830;9.262;2022-07-23T06:13:53;98623.88;;;24.82;55.36
7760;BME280;3924;48.830;9.262;2022-07-23T06:16:19;98628.59;;;24.74;55.29
7760;BME280;3924;48.830;9.262;2022-07-23T06:18:46;98621.00;;;24.64;55.45
7760;BME280;3924;48.830;9.262;2022-07-23T06:21:12;98616.63;;;24.63;54.95
7760;BME280;3924;48.830;9.262;2022-07-23T06:23:59;98602.75;;;24.63;56.04
7760;BME280;3924;48.830;9.262;2022-07-23T06:26:25;98601.59;;;24.64;56.42
7760;BME280;3924;48.830;9.262;2022-07-23T06:28:51;98597.63;;;24.65;55.85
7760;BME280;3924;48.830;9.262;2022-07-23T06:31:18;98601.59;;;24.68;55.77
7760;BME280;3924;48.830;9.262;2022-07-23T06:33:44;98619.13;;;24.79;55.28
7760;BME280;3924;48.830;9.262;2022-07-23T06:36:11;98606.44;;;24.81;55.50
7760;BME280;3924;48.830;9.262;2022-07-23T06:38:37;98613.09;;;24.66;55.71
7760;BME280;3924;48.830;9.262;2022-07-23T06:41:04;98621.00;;;24.64;55.45
7760;BME280;3924;48.830;9.262;2022-07-23T06:43:31;98624.88;;;24.56;56.28
7760;BME280;3924;48.830;9.262;2022-07-23T06:45:57;98623.63;;;24.50;56.10
7760;BME280;3924;48.830;9.262;2022-07-23T06:48:24;98635.56;;;24.54;55.64
7760;BME280;3924;48.830;9.262;2022-07-23T06:50:51;98636.34;;;24.51;55.46
7760;BME280;3924;48.830;9.262;2022-07-23T06:53:18;98624.53;;;24.58;55.22
7760;BME280;3924;48.830;9.262;2022-07-23T06:55:45;98630.84;;;24.58;55.41
7760;BME280;3924;48.830;9.262;2022-07-23T06:58:11;98644.63;;;24.47;56.06
7760;BME280;3924;48.830;9.262;2022-07-23T07:00:38;98657.16;;;24.34;55.68
7760;BME280;3924;48.830;9.262;2022-07-23T07:03:04;98668.50;;;24.22;56.33
7760;BME280;3924;48.830;9.262;2022-07-23T07:05:31;98679.56;;;24.18;56.58
7760;BME280;3924;48.830;9.262;2022-07-23T07:07:57;98682.97;;;24.05;56.54
7760;BME280;3924;48.830;9.262;2022-07-23T07:10:24;98686.41;;;23.94;56.94
7760;BME280;3924;48.830;9.262;2022-07-23T07:12:50;98685.06;;;23.81;57.43
7760;BME280;3924;48.830;9.262;2022-07-23T07:15:17;98692.50;;;23.73;57.05
7760;BME280;3924;48.830;9.262;2022-07-23T07:17:43;98685.66;;;23.64;57.30
7760;BME280;3924;48.830;9.262;2022-07-23T07:20:10;98691.59;;;23.66;57.02
7760;BME280;3924;48.830;9.262;2022-07-23T07:22:37;98680.16;;;23.67;57.94
7760;BME280;3924;48.830;9.262;2022-07-23T07:25:05;98685.91;;;23.55;57.10
7760;BME280;3924;48.830;9.262;2022-07-23T07:27:31;98685.44;;;23.50;58.24
7760;BME280;3924;48.830;9.262;2022-07-23T07:29:58;98663.06;;;23.32;58.02
7760;BME280;3924;48.830;9.262;2022-07-23T07:32:24;98648.75;;;23.26;58.67
7760;BME280;3924;48.830;9.262;2022-07-23T07:35:11;98646.44;;;23.32;57.94
7760;BME280;3924;48.830;9.262;2022-07-23T07:37:37;98657.63;;;23.39;57.92
7760;BME280;3924;48.830;9.262;2022-07-23T07:40:04;98674.38;;;23.50;57.41
7760;BME280;3924;48.830;9.262;2022-07-23T07:42:31;98678.78;;;23.54;57.96
7760;BME280;3924;48.830;9.262;2022-07-23T07:44:58;98674.97;;;23.36;58.46
7760;BME280;3924;48.830;9.262;2022-07-23T07:47:25;98685.16;;;23.28;58.23
7760;BME280;3924;48.830;9.262;2022-07-23T07:49:51;98688.72;;;23.29;58.60
7760;BME280;3924;48.830;9.262;2022-07-23T07:52:18;98701.88;;;23.39;58.71
7760;BME280;3924;48.830;9.262;2022-07-23T07:54:44;98709.38;;;23.35;58.79
7760;BME280;3924;48.830;9.262;2022-07-23T07:57:11;98714.63;;;23.17;58.96
7760;BME280;3924;48.830;9.262;2022-07-23T07:59:37;98720.59;;;22.92;59.87
7760;BME280;3924;48.830;9.262;2022-07-23T08:02:04;98737.84;;;22.86;60.02
7760;BME280;3924;48.830;9.262;2022-07-23T08:04:30;98744.06;;;22.83;60.68
7760;BME280;3924;48.830;9.262;2022-07-23T08:06:57;98747.41;;;22.92;60.36
7760;BME280;3924;48.830;9.262;2022-07-23T08:09:23;98745.88;;;22.95;60.22
7760;BME280;3924;48.830;9.262;2022-07-23T08:11:49;98737.13;;;23.15;59.89
7760;BME280;3924;48.830;9.262;2022-07-23T08:14:18;98738.53;;;23.29;59.54
7760;BME280;3924;48.830;9.262;2022-07-23T08:16:44;98736.81;;;23.20;60.16
7760;BME280;3924;48.830;9.262;2022-07-23T08:19:31;98742.78;;;23.49;60.04
7760;BME280;3924;48.830;9.262;2022-07-23T08:21:57;98743.66;;;23.83;59.20
7760;BME280;3924;48.830;9.262;2022-07-23T08:24:24;98745.97;;;24.45;57.71
7760;BME280;3924;48.830;9.262;2022-07-23T08:26:50;98748.16;;;24.66;57.21
7760;BME280;3924;48.830;9.262;2022-07-23T08:29:17;98740.00;;;24.43;57.32
7760;BME280;3924;48.830;9.262;2022-07-23T08:31:46;98723.56;;;24.27;57.97
7760;BME280;3924;48.830;9.262;2022-07-23T08:34:13;98715.91;;;24.13;59.22
7760;BME280;3924;48.830;9.262;2022-07-23T08:36:39;98719.78;;;24.05;58.93
7760;BME280;3924;48.830;9.262;2022-07-23T08:39:06;98721.78;;;24.08;58.65
7760;BME280;3924;48.830;9.262;2022-07-23T08:41:33;98726.91;;;24.06;58.54
7760;BME280;3924;48.830;9.262;2022-07-23T08:44:00;98724.47;;;24.01;59.80
7760;BME280;3924;48.830;9.262;2022-07-23T08:46:27;98716.59;;;24.03;58.78
7760;BME280;3924;48.830;9.262;2022-07-23T08:48:55;98711.16;;;24.14;58.70
7760;BME280;3924;48.830;9.262;2022-07-23T08:51:25;98726.84;;;24.73;57.06
7760;BME280;3924;48.830;9.262;2022-07-23T08:53:56;98725.78;;;25.40;56.27
7760;BME280;3924;48.830;9.262;2022-07-23T08:56:22;98713.31;;;25.78;55.03
7760;BME280;3924;48.830;9.262;2022-07-23T08:58:49;98717.81;;;26.08;54.96
7760;BME280;3924;48.830;9.262;2022-07-23T09:01:15;98724.22;;;26.30;53.65
7760;BME280;3924;48.830;9.262;2022-07-23T09:03:42;98723.81;;;26.38;53.66
7760;BME280;3924;48.830;9.262;2022-07-23T09:06:11;98715.53;;;26.60;53.67
7760;BME280;3924;48.830;9.262;2022-07-23T09:08:44;98707.22;;;26.81;53.14
7760;BME280;3924;48.830;9.262;2022-07-23T09:11:16;98715.16;;;27.00;52.31
7760;BME280;3924;48.830;9.262;2022-07-23T09:13:50;98718.34;;;27.20;52.58
7760;BME280;3924;48.830;9.262;2022-07-23T09:16:30;98712.34;;;27.36;51.79
7760;BME280;3924;48.830;9.262;2022-07-23T09:19:02;98704.81;;;27.30;51.70
7760;BME280;3924;48.830;9.262;2022-07-23T09:21:30;98712.78;;;27.10;52.71
7760;BME280;3924;48.830;9.262;2022-07-23T09:24:03;98700.03;;;27.23;51.51
7760;BME280;3924;48.830;9.262;2022-07-23T09:26:39;98702.44;;;27.28;51.46
7760;BME280;3924;48.830;9.262;2022-07-23T09:29:24;98700.44;;;27.32;51.46
7760;BME280;3924;48.830;9.262;2022-07-23T09:31:56;98701.63;;;27.35;51.58
7760;BME280;3924;48.830;9.262;2022-07-23T09:34:30;98702.03;;;27.33;51.98
7760;BME280;3924;48.830;9.262;2022-07-23T09:37:12;98692.84;;;27.43;51.15
7760;BME280;3924;48.830;9.262;2022-07-23T09:39:40;98701.59;;;27.52;51.54
7760;BME280;3924;48.830;9.262;2022-07-23T09:42:19;98697.97;;;27.73;50.34
7760;BME280;3924;48.830;9.262;2022-07-23T09:44:50;98697.50;;;27.89;49.86
7760;BME280;3924;48.830;9.262;2022-07-23T09:47:17;98698.19;;;28.07;50.50
7760;BME280;3924;48.830;9.262;2022-07-23T09:52:32;98700.75;;;28.47;48.88
7760;BME280;3924;48.830;9.262;2022-07-23T09:55:10;98691.53;;;28.57;48.60
7760;BME280;3924;48.830;9.262;2022-07-23T09:57:37;98698.03;;;28.40;49.58
7760;BME280;3924;48.830;9.262;2022-07-23T10:00:08;98696.50;;;28.28;49.78
7760;BME280;3924;48.830;9.262;2022-07-23T10:02:39;98702.84;;;28.32;49.10
7760;BME280;3924;48.830;9.262;2022-07-23T10:05:06;98697.13;;;28.53;48.06
7760;BME280;3924;48.830;9.262;2022-07-23T10:07:37;98703.44;;;28.65;48.51
7760;BME280;3924;48.830;9.262;2022-07-23T10:10:05;98704.75;;;28.49;47.96
7760;BME280;3924;48.830;9.262;2022-07-23T10:12:32;98694.94;;;28.20;49.20
7760;BME280;3924;48.830;9.262;2022-07-23T10:15:10;98685.38;;;28.17;48.94
7760;BME280;3924;48.830;9.262;2022-07-23T10:17:37;98688.25;;;27.99;49.69
7760;BME280;3924;48.830;9.262;2022-07-23T10:20:04;98698.25;;;28.00;48.47
7760;BME280;3924;48.830;9.262;2022-07-23T10:22:35;98697.03;;;28.01;48.79
7760;BME280;3924;48.830;9.262;2022-07-23T10:31:26;98694.13;;;28.23;48.30
7760;BME280;3924;48.830;9.262;2022-07-23T10:34:49;98697.00;;;28.08;48.59
7760;BME280;3924;48.830;9.262;2022-07-23T10:37:14;98696.09;;;28.26;47.91
7760;BME280;3924;48.830;9.262;2022-07-23T10:40:14;98696.97;;;28.16;47.62
7760;BME280;3924;48.830;9.262;2022-07-23T10:42:41;98691.41;;;28.08;48.14
7760;BME280;3924;48.830;9.262;2022-07-23T10:45:40;98690.91;;;28.24;46.90
7760;BME280;3924;48.830;9.262;2022-07-23T10:48:20;98691.66;;;28.39;46.87
7760;BME280;3924;48.830;9.262;2022-07-23T10:51:06;98695.59;;;28.45;47.21
7760;BME280;3924;48.830;9.262;2022-07-23T10:59:12;98688.13;;;28.31;47.19
7760;BME280;3924;48.830;9.262;2022-07-23T11:01:39;98688.13;;;28.28;47.11
7760;BME280;3924;48.830;9.262;2022-07-23T11:04:06;98688.13;;;28.31;46.96
7760;BME280;3924;48.830;9.262;2022-07-23T11:09:39;98691.66;;;28.39;46.42
7760;BME280;3924;48.830;9.262;2022-07-23T11:14:59;98682.47;;;28.94;46.20
7760;BME280;3924;48.830;9.262;2022-07-23T11:17:26;98682.41;;;29.01;45.88
7760;BME280;3924;48.830;9.262;2022-07-23T11:22:57;98681.19;;;29.02;45.05
7760;BME280;3924;48.830;9.262;2022-07-23T11:28:13;98672.53;;;28.93;45.92
7760;BME280;3924;48.830;9.262;2022-07-23T11:30:55;98677.47;;;28.71;45.13
7760;BME280;3924;48.830;9.262;2022-07-23T11:33:23;98679.94;;;28.62;45.68
7760;BME280;3924;48.830;9.262;2022-07-23T11:36:01;98672.19;;;28.84;45.89
7760;BME280;3924;48.830;9.262;2022-07-23T11:38:31;98678.28;;;29.16;44.09
7760;BME280;3924;48.830;9.262;2022-07-23T11:40:58;98678.72;;;29.49;43.50
7760;BME280;3924;48.830;9.262;2022-07-23T11:43:24;98674.03;;;29.77;43.23
7760;BME280;3924;48.830;9.262;2022-07-23T11:45:58;98685.59;;;29.79;43.04
7760;BME280;3924;48.830;9.262;2022-07-23T11:48:27;98678.81;;;29.42;44.60
7760;BME280;3924;48.830;9.262;2022-07-23T11:50:56;98680.81;;;29.00;44.35
7760;BME280;3924;48.830;9.262;2022-07-23T11:55:49;98683.63;;;29.00;44.70
7760;BME280;3924;48.830;9.262;2022-07-23T11:58:16;98675.34;;;28.89;44.96
7760;BME280;3924;48.830;9.262;2022-07-23T12:00:42;98674.56;;;28.82;44.49
7760;BME280;3924;48.830;9.262;2022-07-23T12:03:09;98679.41;;;28.78;44.81
7760;BME280;3924;48.830;9.262;2022-07-23T12:05:38;98675.47;;;28.68;44.72
7760;BME280;3924;48.830;9.262;2022-07-23T12:08:13;98665.94;;;28.66;44.82
7760;BME280;3924;48.830;9.262;2022-07-23T12:10:42;98665.47;;;28.78;44.40
7760;BME280;3924;48.830;9.262;2022-07-23T12:13:12;98658.50;;;29.00;44.58
7760;BME280;3924;48.830;9.262;2022-07-23T12:16:04;98657.47;;;29.25;44.61
7760;BME280;3924;48.830;9.262;2022-07-23T12:18:31;98654.09;;;29.40;43.08
7760;BME280;3924;48.830;9.262;2022-07-23T12:21:03;98665.19;;;29.44;43.32
7760;BME280;3924;48.830;9.262;2022-07-23T12:23:31;98659.50;;;29.58;43.31
7760;BME280;3924;48.830;9.262;2022-07-23T12:26:01;98658.66;;;29.61;43.94
7760;BME280;3924;48.830;9.262;2022-07-23T12:28:30;98653.56;;;29.49;43.30
7760;BME280;3924;48.830;9.262;2022-07-23T12:30:59;98657.53;;;29.18;43.91
7760;BME280;3924;48.830;9.262;2022-07-23T12:33:26;98649.91;;;29.22;43.93
7760;BME280;3924;48.830;9.262;2022-07-23T12:35:55;98654.97;;;29.30;43.62
7760;BME280;3924;48.830;9.262;2022-07-23T12:38:24;98654.88;;;29.41;43.09
7760;BME280;3924;48.830;9.262;2022-07-23T12:41:01;98652.41;;;29.47;44.06
7760;BME280;3924;48.830;9.262;2022-07-23T12:43:28;98650.78;;;29.49;43.68
7760;BME280;3924;48.830;9.262;2022-07-23T12:48:36;98657.94;;;29.54;42.67
7760;BME280;3924;48.830;9.262;2022-07-23T12:51:21;98656.31;;;29.56;42.58
7760;BME280;3924;48.830;9.262;2022-07-23T12:53:52;98647.44;;;29.65;42.29
7760;BME280;3924;48.830;9.262;2022-07-23T12:56:27;98659.13;;;29.87;43.22
7760;BME280;3924;48.830;9.262;2022-07-23T13:01:29;98650.00;;;29.83;41.84
7760;BME280;3924;48.830;9.262;2022-07-23T13:04:12;98658.28;;;29.90;41.97
7760;BME280;3924;48.830;9.262;2022-07-23T13:06:45;98649.06;;;29.93;42.12
7760;BME280;3924;48.830;9.262;2022-07-23T13:09:17;98656.41;;;30.14;41.80
7760;BME280;3924;48.830;9.262;2022-07-23T13:11:45;98654.41;;;30.14;41.41
7760;BME280;3924;48.830;9.262;2022-07-23T13:14:14;98654.84;;;30.09;41.58
7760;BME280;3924;48.830;9.262;2022-07-23T13:16:41;98662.56;;;29.98;42.41
7760;BME280;3924;48.830;9.262;2022-07-23T13:19:08;98662.19;;;29.96;42.75
7760;BME280;3924;48.830;9.262;2022-07-23T13:21:39;98652.97;;;29.99;41.75
7760;BME280;3924;48.830;9.262;2022-07-23T13:24:06;98663.00;;;29.96;43.02
7760;BME280;3924;48.830;9.262;2022-07-23T13:26:35;98655.72;;;30.03;41.75
7760;BME280;3924;48.830;9.262;2022-07-23T13:29:04;98657.22;;;29.46;42.63
7760;BME280;3924;48.830;9.262;2022-07-23T13:31:36;98663.41;;;29.27;43.33
7760;BME280;3924;48.830;9.262;2022-07-23T13:34:05;98653.38;;;29.33;43.77
7760;BME280;3924;48.830;9.262;2022-07-23T13:36:33;98673.13;;;29.53;43.27
7760;BME280;3924;48.830;9.262;2022-07-23T13:39:00;98663.81;;;29.63;43.21
7760;BME280;3924;48.830;9.262;2022-07-23T13:41:27;98651.47;;;29.60;42.79
7760;BME280;3924;48.830;9.262;2022-07-23T13:43:53;98661.19;;;29.83;42.29
7760;BME280;3924;48.830;9.262;2022-07-23T13:46:20;98650.91;;;30.03;42.14
7760;BME280;3924;48.830;9.262;2022-07-23T13:48:47;98642.34;;;30.17;41.87
7760;BME280;3924;48.830;9.262;2022-07-23T13:51:15;98648.22;;;30.27;42.37
7760;BME280;3924;48.830;9.262;2022-07-23T13:53:42;98648.28;;;30.46;41.81
7760;BME280;3924;48.830;9.262;2022-07-23T13:56:09;98643.97;;;30.42;41.52
7760;BME280;3924;48.830;9.262;2022-07-23T13:58:35;98639.22;;;30.39;41.87
7760;BME280;3924;48.830;9.262;2022-07-23T14:01:02;98639.78;;;30.54;41.82
7760;BME280;3924;48.830;9.262;2022-07-23T14:03:29;98647.25;;;30.37;41.69